• Join FlightAware (Why Join?)
  • Login
  • US Flag 
12:49AM EDT


 

Airport Tracker/Info


-or-


 

Live Flight TrackerFlight Track Log ✈ CTL21 ✈ 30-Apr-2013 ✈ KAZO - KBKL

Flight Track Log - Related Links

Times and Time Zones

All times are in EDT time to prevent confusion due to time zone crossing. See the CTL21 flight status page for this flight to view local times or setup timezone preferences in your user account.

Time Position Orientation Groundspeed Altitude Reporting Facility
EDT Latitude Longitude Course Direction KTS MPH feet Rate Location/Type
05:06PM 42.1603 -85.3950 117° Southeast 132 152 4,100  Level Chicago Center
05:07PM 42.1436 -85.3472 115° Southeast 137 158 4,700 540 Climbing Chicago Center
05:08PM 42.1127 -85.2685 120° Southeast  Level FlightAware Approximate
05:08PM 42.1250 -85.2989 117° Southeast 143 165 5,300  Level Chicago Center
05:09PM 42.0886 -85.2122 120° Southeast  Level FlightAware Approximate
05:09PM 42.1061 -85.2472 116° Southeast 150 173 5,800  Level Chicago Center
05:10PM 42.0662 -85.1546 117° Southeast  Level FlightAware Approximate
05:10PM 42.0872 -85.2008 119° Southeast 146 168 6,700  Level Chicago Center
05:11PM 42.0644 -85.1469 120° Southeast 139 160 7,500 660 Climbing Chicago Center
05:12PM 42.0439 -85.0967 119° Southeast 149 171 8,100 540 Climbing Chicago Center
05:13PM 42.0225 -85.0475 120° Southeast 151 174 8,700 480 Climbing Chicago Center
05:14PM 42.0011 -84.9969 120° Southeast 153 176 9,100 240 Climbing Chicago Center
05:15PM 41.9772 -84.9383 119° Southeast 170 196 9,200 -60 Climbing Chicago Center
05:16PM 41.9531 -84.8758 117° Southeast 183 211 9,000 -120 Descending Chicago Center
05:17PM 41.9225 -84.8044 120° Southeast 184 212 9,000  Level Chicago Center
05:18PM 41.8983 -84.7447 119° Southeast 181 208 9,000  Level Chicago Center
05:19PM 41.8742 -84.6856 119° Southeast 181 208 9,000  Level Chicago Center
05:20PM 41.8503 -84.6247 118° Southeast 182 209 9,000  Level Chicago Center
05:21PM 41.8253 -84.5664 120° Southeast 181 208 9,000  Level Chicago Center
05:22PM 41.7994 -84.5075 120° Southeast 182 209 9,000  Level Chicago Center
05:23PM 41.7717 -84.4364 118° Southeast 180 207 9,000  Level Chicago Center
05:24PM 41.7486 -84.3761 117° Southeast 181 208 9,000 -60 Level Chicago Center
05:25PM 41.7250 -84.3183 119° Southeast 178 205 8,900 -300 Descending Chicago Center
05:26PM 41.7031 -84.2572 116° Southeast 179 206 8,400 -540 Descending Chicago Center
05:27PM 41.6886 -84.1872 105° East 187 215 7,800 -120 Descending Chicago Center
05:45PM 41.6236 -83.1108 94° East 163 188 7,000 -60 Descending Cleveland Center
05:46PM 41.6189 -83.0303 94° East 160 184 7,000  Level Cleveland Center
05:47PM 41.6142 -82.9689 96° East 162 186 7,000  Level Cleveland Center
05:48PM 41.6111 -82.9106 94° East 158 182 7,000  Level Cleveland Center
05:49PM 41.6122 -82.8550 88° East 161 185 7,000  Level Cleveland Center
05:50PM 41.6133 -82.7994 88° East 161 185 7,000  Level Cleveland Center
05:51PM 41.6083 -82.7381 96° East 160 184 7,000 -240 Level Cleveland Center
05:52PM 41.6072 -82.6769 91° East 169 194 6,600 -420 Descending Cleveland Center
05:53PM 41.6064 -82.6131 91° East 177 204 6,200 -480 Descending Cleveland Center
05:54PM 41.6033 -82.5464 93° East 173 199 5,700 -480 Descending Cleveland Center
05:55PM 41.6022 -82.4825 91° East 171 197 5,300 -480 Descending Cleveland Center
05:56PM 41.6011 -82.4214 91° East 165 190 4,800 -480 Descending Cleveland Center
05:57PM 41.5981 -82.3519 93° East 163 188 4,300 -540 Descending Cleveland Center
05:58PM 41.5989 -82.2964 89° East 153 176 3,700 -600 Descending Cleveland Center
05:59PM 41.5958 -82.2381 94° East 154 177 3,200 -360 Descending Cleveland Center
06:00PM 41.5944 -82.1853 92° East 150 173 3,000 -180 Descending Cleveland Center
06:02PM 41.5911 -82.1267 94° East 131 151 2,900 -240 Descending Cleveland Center
06:03PM 41.5917 -82.0714 89° East 147 169 2,600 -360 Descending Cleveland Center
06:04PM 41.5842 -82.0156 100° East 154 177 2,200 -480 Descending Cleveland Center
06:04PM 41.5742 -81.9653 105° East 151 174 1,700 -360 Descending Cleveland Center
06:05PM 41.5667 -81.9125 101° East 144 166 1,600 -60 Descending Cleveland Center
06:07PM 41.5567 -81.8594 104° East 131 151 1,600  Level Cleveland Center
06:08PM 41.5447 -81.8178 111° Southeast 144 166 1,600  Level Cleveland Center
06:09PM 41.5347 -81.7675 105° East 140 161 1,600 -180 Level Cleveland Center
06:10PM 41.5206 -81.7231 113° Southeast 126 145 1,300 -300 Descending Cleveland Center
06:12PM 41.5175 -81.6833 90° East  Level Estimated